Albion, Iowa
Current Conditions -  °F | °C
As of 3:53 PM on Monday 22 Dec 2014 (Local Time) from KMIW Reporting Station
Overcast Overcast  
Wind Chill: 28°   Ceiling: 700
Heat Index: 37°   Visibility: 7mi
Dew Point: 35°   Wind: 16mph
Humidity: 93%   Direction: 120°ESE
Pressure: 29.5"   Gusts: NA
Location:  42.11°N, 92.99°W
Report Text: KMIW 222153Z AUTO 12014KT 7SM OVC007 03/02 A2950 RMK AO2 SLP995 T00280017
Loading
Personal Weather Stations






























Interactive Weather Map New forecast layout! Learn more

10-Day Weather Forecast

Advertisements
Track Severe Weather on mobile